createdAt,value
2019-01-26T00:00:49.843Z,-1.37
2019-01-26T00:01:49.775Z,-1.41
2019-01-26T00:02:50.028Z,-1.41
2019-01-26T00:03:49.842Z,-1.39
2019-01-26T00:04:49.765Z,-1.36
2019-01-26T00:05:49.723Z,-1.35
2019-01-26T00:06:49.852Z,-1.38
2019-01-26T00:07:49.957Z,-1.37
2019-01-26T00:08:49.929Z,-1.34
2019-01-26T00:09:49.797Z,-1.33
2019-01-26T00:10:49.689Z,-1.34
2019-01-26T00:11:49.790Z,-1.31
2019-01-26T00:12:49.886Z,-1.31
2019-01-26T00:13:50.170Z,-1.33
2019-01-26T00:14:49.881Z,-1.32
2019-01-26T00:15:49.767Z,-1.34
2019-01-26T00:16:50.192Z,-1.29
2019-01-26T00:17:49.868Z,-1.27
2019-01-26T00:18:49.870Z,-1.33
2019-01-26T00:19:49.751Z,-1.34
2019-01-26T00:20:49.716Z,-1.33
2019-01-26T00:21:49.861Z,-1.33
2019-01-26T00:22:49.682Z,-1.35
2019-01-26T00:23:49.860Z,-1.34
2019-01-26T00:24:49.705Z,-1.32
2019-01-26T00:25:49.728Z,-1.34
2019-01-26T00:26:49.730Z,-1.32
2019-01-26T00:27:49.695Z,-1.33
2019-01-26T00:28:50.129Z,-1.33
2019-01-26T00:29:50.271Z,-1.32
2019-01-26T00:30:49.913Z,-1.34
2019-01-26T00:31:49.791Z,-1.38
2019-01-26T00:32:49.665Z,-1.35
2019-01-26T00:33:49.763Z,-1.37
2019-01-26T00:34:49.685Z,-1.36
2019-01-26T00:35:49.727Z,-1.36
2019-01-26T00:36:49.760Z,-1.33
2019-01-26T00:37:49.777Z,-1.32
2019-01-26T00:38:50.186Z,-1.34
2019-01-26T00:39:49.661Z,-1.32
2019-01-26T00:40:49.649Z,-1.31
2019-01-26T00:41:49.673Z,-1.33
2019-01-26T00:42:49.682Z,-1.32
2019-01-26T00:43:49.732Z,-1.32
2019-01-26T00:44:49.969Z,-1.32
2019-01-26T00:45:49.712Z,-1.33
2019-01-26T00:46:49.655Z,-1.3
2019-01-26T00:47:49.911Z,-1.31
2019-01-26T00:48:49.656Z,-1.28
2019-01-26T00:49:49.688Z,-1.32
2019-01-26T00:50:49.619Z,-1.3
2019-01-26T00:51:49.776Z,-1.28
2019-01-26T00:52:50.024Z,-1.24
2019-01-26T00:53:49.931Z,-1.28
2019-01-26T00:54:49.704Z,-1.25
2019-01-26T00:55:49.680Z,-1.24
2019-01-26T00:56:49.830Z,-1.25
2019-01-26T00:57:49.967Z,-1.26
2019-01-26T00:58:49.614Z,-1.29
2019-01-26T00:59:49.690Z,-1.34
2019-01-26T01:00:49.625Z,-1.29
2019-01-26T01:01:49.702Z,-1.27
2019-01-26T01:02:49.707Z,-1.28
2019-01-26T01:03:50.385Z,-1.21
2019-01-26T01:04:49.635Z,-1.19
2019-01-26T01:05:49.729Z,-1.22
2019-01-26T01:06:49.921Z,-1.21
2019-01-26T01:07:49.910Z,-1.21
2019-01-26T01:08:49.647Z,-1.21
2019-01-26T01:09:49.945Z,-1.19
2019-01-26T01:10:49.770Z,-1.19
2019-01-26T01:11:49.658Z,-1.2
2019-01-26T01:12:49.726Z,-1.19
2019-01-26T01:13:49.709Z,-1.17
2019-01-26T01:14:49.995Z,-1.16
2019-01-26T01:15:49.649Z,-1.15
2019-01-26T01:16:49.720Z,-1.14
2019-01-26T01:17:49.932Z,-1.17
2019-01-26T01:18:49.778Z,-1.14
2019-01-26T01:19:49.749Z,-1.12
2019-01-26T01:20:49.899Z,-1.12
2019-01-26T01:21:50.026Z,-1.11
2019-01-26T01:22:49.722Z,-1.12
2019-01-26T01:23:49.679Z,-1.14
2019-01-26T01:24:49.628Z,-1.15
2019-01-26T01:25:51.469Z,-1.14
2019-01-26T01:26:49.751Z,-1.17
2019-01-26T01:27:49.626Z,-1.19
2019-01-26T01:28:50.199Z,-1.22
2019-01-26T01:29:50.065Z,-1.24
2019-01-26T01:30:49.595Z,-1.2
2019-01-26T01:31:49.878Z,-1.18
2019-01-26T01:32:49.760Z,-1.15
2019-01-26T01:33:51.385Z,-1.15
2019-01-26T01:34:50.093Z,-1.13
2019-01-26T01:35:49.835Z,-1.14
2019-01-26T01:36:49.591Z,-1.13
2019-01-26T01:37:50.201Z,-1.12
2019-01-26T01:38:49.827Z,-1.13
2019-01-26T01:39:49.705Z,-1.11
2019-01-26T01:40:49.721Z,-1.09
2019-01-26T01:41:49.995Z,-1.12
2019-01-26T01:42:49.555Z,-1.13
2019-01-26T01:43:49.690Z,-1.18
2019-01-26T01:44:49.688Z,-1.28
2019-01-26T01:45:49.602Z,-1.3
2019-01-26T01:46:49.635Z,-1.29
2019-01-26T01:47:50.242Z,-1.27
2019-01-26T01:48:49.600Z,-1.31
2019-01-26T01:49:49.634Z,-1.34
2019-01-26T01:50:49.757Z,-1.3
2019-01-26T01:51:49.730Z,-1.25
2019-01-26T01:52:49.825Z,-1.39
2019-01-26T01:53:51.391Z,-1.43
2019-01-26T01:54:49.887Z,-1.41
2019-01-26T01:55:49.672Z,-1.42
2019-01-26T01:56:49.648Z,-1.45
2019-01-26T01:57:49.784Z,-1.36
2019-01-26T01:58:49.518Z,-1.4
2019-01-26T01:59:49.683Z,-1.41
2019-01-26T02:00:49.563Z,-1.4
2019-01-26T02:01:49.511Z,-1.4
2019-01-26T02:02:49.605Z,-1.37
2019-01-26T02:03:49.548Z,-1.39
2019-01-26T02:04:49.502Z,-1.42
2019-01-26T02:05:49.648Z,-1.36
2019-01-26T02:06:49.537Z,-1.41
2019-01-26T02:07:49.697Z,-1.39
2019-01-26T02:08:49.576Z,-1.42
2019-01-26T02:09:49.529Z,-1.42
2019-01-26T02:10:49.534Z,-1.43
2019-01-26T02:11:49.519Z,-1.38
2019-01-26T02:12:49.500Z,-1.38
2019-01-26T02:13:49.636Z,-1.42
2019-01-26T02:14:49.898Z,-1.42
2019-01-26T02:15:49.496Z,-1.43
2019-01-26T02:16:50.500Z,-1.4
2019-01-26T02:17:49.744Z,-1.34
2019-01-26T02:18:49.489Z,-1.32
2019-01-26T02:19:49.935Z,-1.32
2019-01-26T02:20:49.677Z,-1.33
2019-01-26T02:21:49.530Z,-1.36
2019-01-26T02:22:49.650Z,-1.34
2019-01-26T02:23:50.059Z,-1.25
2019-01-26T02:24:49.556Z,-1.26
2019-01-26T02:25:49.619Z,-1.23
2019-01-26T02:26:49.550Z,-1.24
2019-01-26T02:27:49.480Z,-1.24
2019-01-26T02:28:49.709Z,-1.3
2019-01-26T02:29:49.671Z,-1.22
2019-01-26T02:30:49.551Z,-1.21
2019-01-26T02:31:49.833Z,-1.18
2019-01-26T02:32:49.695Z,-1.21
2019-01-26T02:33:49.520Z,-1.21
2019-01-26T02:34:49.567Z,-1.17
2019-01-26T02:35:50.120Z,-1.17
2019-01-26T02:36:49.546Z,-1.14
2019-01-26T02:37:49.909Z,-1.16
2019-01-26T02:38:49.527Z,-1.14
2019-01-26T02:39:49.741Z,-1.14
2019-01-26T02:40:49.868Z,-1.17
2019-01-26T02:41:49.772Z,-1.17
2019-01-26T02:42:49.560Z,-1.13
2019-01-26T02:43:49.621Z,-1.14
2019-01-26T02:44:49.894Z,-1.13
2019-01-26T02:45:50.718Z,-1.11
2019-01-26T02:46:49.783Z,-1.12
2019-01-26T02:47:49.635Z,-1.11
2019-01-26T02:48:50.120Z,-1.12
2019-01-26T02:49:49.432Z,-1.12
2019-01-26T02:50:49.551Z,-1.1
2019-01-26T02:51:49.489Z,-1.1
2019-01-26T02:52:49.479Z,-1.1
2019-01-26T02:53:49.523Z,-1.12
2019-01-26T02:54:49.620Z,-1.14
2019-01-26T02:55:49.556Z,-1.12
2019-01-26T02:56:49.598Z,-1.14
2019-01-26T02:57:49.624Z,-1.15
2019-01-26T02:58:49.727Z,-1.16
2019-01-26T02:59:49.514Z,-1.15
2019-01-26T03:00:49.552Z,-1.11
2019-01-26T03:01:49.438Z,-1.11
2019-01-26T03:02:49.695Z,-1.14
2019-01-26T03:03:49.942Z,-1.12
2019-01-26T03:04:49.495Z,-1.17
2019-01-26T03:05:49.596Z,-1.18
2019-01-26T03:06:49.587Z,-1.2
2019-01-26T03:07:49.814Z,-1.2
2019-01-26T03:08:49.559Z,-1.18
2019-01-26T03:09:49.495Z,-1.17
2019-01-26T03:10:50.584Z,-1.18
2019-01-26T03:11:49.434Z,-1.25
2019-01-26T03:12:49.516Z,-1.28
2019-01-26T03:13:49.427Z,-1.25
2019-01-26T03:14:51.240Z,-1.21
2019-01-26T03:15:49.594Z,-1.26
2019-01-26T03:16:49.693Z,-1.29
2019-01-26T03:17:49.878Z,-1.29
2019-01-26T03:18:49.475Z,-1.27
2019-01-26T03:19:49.411Z,-1.25
2019-01-26T03:20:49.453Z,-1.24
2019-01-26T03:21:49.452Z,-1.27
2019-01-26T03:22:49.594Z,-1.28
2019-01-26T03:23:49.462Z,-1.28
2019-01-26T03:24:49.530Z,-1.27
2019-01-26T03:25:49.849Z,-1.29
2019-01-26T03:26:49.520Z,-1.29
2019-01-26T03:27:49.563Z,-1.27
2019-01-26T03:28:49.680Z,-1.31
2019-01-26T03:29:49.388Z,-1.31
2019-01-26T03:30:49.621Z,-1.27
2019-01-26T03:31:49.843Z,-1.27
2019-01-26T03:32:49.944Z,-1.26
2019-01-26T03:33:49.596Z,-1.27
2019-01-26T03:34:49.463Z,-1.27
2019-01-26T03:35:49.423Z,-1.29
2019-01-26T03:36:49.488Z,-1.25
2019-01-26T03:37:49.628Z,-1.23
2019-01-26T03:38:49.443Z,-1.24
2019-01-26T03:39:49.531Z,-1.18
2019-01-26T03:40:49.382Z,-1.19
2019-01-26T03:41:49.375Z,-1.21
2019-01-26T03:42:49.360Z,-1.25
2019-01-26T03:43:49.544Z,-1.24
2019-01-26T03:44:49.517Z,-1.23
2019-01-26T03:45:49.645Z,-1.21
2019-01-26T03:46:49.416Z,-1.23
2019-01-26T03:47:49.489Z,-1.21
2019-01-26T03:48:49.450Z,-1.23
2019-01-26T03:49:49.482Z,-1.24
2019-01-26T03:50:49.435Z,-1.26
2019-01-26T03:51:49.414Z,-1.24
2019-01-26T03:52:49.445Z,-1.26
2019-01-26T03:53:49.787Z,-1.22
2019-01-26T03:54:49.427Z,-1.26
2019-01-26T03:55:49.373Z,-1.26
2019-01-26T03:56:49.424Z,-1.33
2019-01-26T03:57:49.352Z,-1.32
2019-01-26T03:58:49.427Z,-1.31
2019-01-26T03:59:49.840Z,-1.28
2019-01-26T04:00:49.427Z,-1.29
2019-01-26T04:01:49.385Z,-1.27
2019-01-26T04:02:51.166Z,-1.32
2019-01-26T04:03:49.498Z,-1.3
2019-01-26T04:04:49.539Z,-1.31
2019-01-26T04:05:51.171Z,-1.3
2019-01-26T04:06:49.616Z,-1.27
2019-01-26T04:07:49.412Z,-1.28
2019-01-26T04:08:49.333Z,-1.26
2019-01-26T04:09:50.628Z,-1.29
2019-01-26T04:10:50.075Z,-1.28
2019-01-26T04:11:49.369Z,-1.23
2019-01-26T04:12:49.442Z,-1.22
2019-01-26T04:13:49.575Z,-1.23
2019-01-26T04:14:58.568Z,-1.22
2019-01-26T04:15:50.186Z,-1.21
2019-01-26T04:16:49.533Z,-1.19
2019-01-26T04:17:49.422Z,-1.18
2019-01-26T04:18:49.415Z,-1.16
2019-01-26T04:19:49.845Z,-1.12
2019-01-26T04:20:49.374Z,-1.12
2019-01-26T04:21:49.427Z,-1.13
2019-01-26T04:22:49.475Z,-1.12
2019-01-26T04:23:49.550Z,-1.12
2019-01-26T04:24:49.575Z,-1.14
2019-01-26T04:25:49.397Z,-1.1
2019-01-26T04:26:49.319Z,-1.09
2019-01-26T04:27:49.549Z,-1.07
2019-01-26T04:28:49.737Z,-1.05
2019-01-26T04:29:49.690Z,-1.04
2019-01-26T04:30:50.105Z,-1.01
2019-01-26T04:31:49.386Z,-1.06
2019-01-26T04:32:49.392Z,-1.01
2019-01-26T04:33:49.572Z,-1.01
2019-01-26T04:34:49.753Z,-0.99
2019-01-26T04:35:49.402Z,-1.01
2019-01-26T04:36:49.300Z,-1
2019-01-26T04:37:49.439Z,-0.96
2019-01-26T04:38:49.711Z,-0.99
2019-01-26T04:39:49.329Z,-0.95
2019-01-26T04:40:51.130Z,-1
2019-01-26T04:41:49.349Z,-0.96
2019-01-26T04:42:49.286Z,-0.97
2019-01-26T04:43:49.636Z,-0.97
2019-01-26T04:44:49.368Z,-0.97
2019-01-26T04:45:49.592Z,-0.95
2019-01-26T04:46:50.081Z,-0.92
2019-01-26T04:47:49.878Z,-0.93
2019-01-26T04:48:51.155Z,-0.95
2019-01-26T04:49:49.318Z,-0.95
2019-01-26T04:50:49.750Z,-0.91
2019-01-26T04:51:49.436Z,-0.89
2019-01-26T04:52:49.680Z,-0.94
2019-01-26T04:53:49.366Z,-0.89
2019-01-26T04:54:50.499Z,-0.89
2019-01-26T04:55:49.509Z,-0.86
2019-01-26T04:56:49.404Z,-0.86
2019-01-26T04:57:49.485Z,-0.84
2019-01-26T04:58:49.289Z,-0.84
2019-01-26T04:59:49.438Z,-0.83
2019-01-26T05:00:49.523Z,-0.79
2019-01-26T05:01:49.300Z,-0.84
2019-01-26T05:02:49.588Z,-0.8
2019-01-26T05:03:49.394Z,-0.81
2019-01-26T05:04:50.160Z,-0.81
2019-01-26T05:05:49.562Z,-0.77
2019-01-26T05:06:49.350Z,-0.81
2019-01-26T05:07:49.278Z,-0.75
2019-01-26T05:08:49.358Z,-0.77
2019-01-26T05:09:49.376Z,-0.76
2019-01-26T05:10:49.294Z,-0.76
2019-01-26T05:11:51.082Z,-0.74
2019-01-26T05:12:49.362Z,-0.74
2019-01-26T05:13:49.328Z,-0.77
2019-01-26T05:14:49.486Z,-0.75
2019-01-26T05:15:51.069Z,-0.71
2019-01-26T05:16:49.283Z,-0.76
2019-01-26T05:17:49.242Z,-0.78
2019-01-26T05:18:49.347Z,-0.75
2019-01-26T05:19:49.534Z,-0.77
2019-01-26T05:20:49.388Z,-0.75
2019-01-26T05:21:49.558Z,-0.74
2019-01-26T05:22:49.352Z,-0.74
2019-01-26T05:23:49.232Z,-0.72
2019-01-26T05:24:49.263Z,-0.68
2019-01-26T05:25:49.287Z,-0.7
2019-01-26T05:26:49.266Z,-0.72
2019-01-26T05:27:49.294Z,-0.66
2019-01-26T05:28:49.319Z,-0.71
2019-01-26T05:29:49.288Z,-0.68
2019-01-26T05:30:49.259Z,-0.67
2019-01-26T05:31:49.250Z,-0.69
2019-01-26T05:32:49.234Z,-0.64
2019-01-26T05:33:49.251Z,-0.67
2019-01-26T05:34:49.243Z,-0.69
2019-01-26T05:35:49.314Z,-0.67
2019-01-26T05:36:49.318Z,-0.68
2019-01-26T05:37:49.246Z,-0.65
2019-01-26T05:38:49.228Z,-0.65
2019-01-26T05:39:49.196Z,-0.67
2019-01-26T05:40:49.213Z,-0.67
2019-01-26T05:41:49.250Z,-0.65
2019-01-26T05:42:49.298Z,-0.59
2019-01-26T05:43:49.350Z,-0.6
2019-01-26T05:44:50.081Z,-0.64
2019-01-26T05:45:49.284Z,-0.65
2019-01-26T05:46:49.194Z,-0.63
2019-01-26T05:47:49.983Z,-0.62
2019-01-26T05:48:49.700Z,-0.64
2019-01-26T05:49:49.414Z,-0.63
2019-01-26T05:50:49.330Z,-0.67
2019-01-26T05:51:49.257Z,-0.67
2019-01-26T05:52:49.546Z,-0.66
2019-01-26T05:53:49.221Z,-0.63
2019-01-26T05:54:50.404Z,-0.6
2019-01-26T05:55:49.311Z,-0.65
2019-01-26T05:56:49.262Z,-0.64
2019-01-26T05:57:49.518Z,-0.63
2019-01-26T05:58:49.505Z,-0.65
2019-01-26T05:59:49.406Z,-0.66
2019-01-26T06:00:49.187Z,-0.65
2019-01-26T06:01:49.385Z,-0.64
2019-01-26T06:02:49.629Z,-0.65
2019-01-26T06:03:49.531Z,-0.62
2019-01-26T06:04:49.548Z,-0.64
2019-01-26T06:05:49.559Z,-0.64
2019-01-26T06:06:49.247Z,-0.66
2019-01-26T06:07:50.387Z,-0.7
2019-01-26T06:08:49.379Z,-0.64
2019-01-26T06:09:49.131Z,-0.65
2019-01-26T06:10:49.363Z,-0.68
2019-01-26T06:11:49.597Z,-0.63
2019-01-26T06:12:49.234Z,-0.61
2019-01-26T06:13:49.548Z,-0.65
2019-01-26T06:14:49.261Z,-0.66
2019-01-26T06:15:49.338Z,-0.63
2019-01-26T06:16:49.501Z,-0.61
2019-01-26T06:17:55.602Z,-0.61
2019-01-26T06:18:49.147Z,-0.61
2019-01-26T06:19:50.977Z,-0.6
2019-01-26T06:20:49.743Z,-0.56
2019-01-26T06:21:49.443Z,-0.58
2019-01-26T06:22:49.156Z,-0.58
2019-01-26T06:23:50.970Z,-0.57
2019-01-26T06:24:49.332Z,-0.6
2019-01-26T06:25:49.210Z,-0.63
2019-01-26T06:26:49.306Z,-0.6
2019-01-26T06:27:49.492Z,-0.61
2019-01-26T06:28:49.208Z,-0.66
2019-01-26T06:29:49.117Z,-0.66
2019-01-26T06:30:49.158Z,-0.69
2019-01-26T06:31:48.956Z,-0.66
2019-01-26T06:32:49.350Z,-0.62
2019-01-26T06:33:49.190Z,-0.56
2019-01-26T06:34:49.192Z,-0.6
2019-01-26T06:35:49.303Z,-0.61
2019-01-26T06:36:49.173Z,-0.59
2019-01-26T06:37:49.174Z,-0.56
2019-01-26T06:38:49.258Z,-0.59
2019-01-26T06:39:49.577Z,-0.55
2019-01-26T06:40:49.208Z,-0.58
2019-01-26T06:41:49.126Z,-0.56
2019-01-26T06:42:49.238Z,-0.56
2019-01-26T06:43:49.164Z,-0.51
2019-01-26T06:44:49.499Z,-0.49
2019-01-26T06:45:49.613Z,-0.5
2019-01-26T06:46:49.211Z,-0.46
2019-01-26T06:47:49.198Z,-0.47
2019-01-26T06:48:49.413Z,-0.45
2019-01-26T06:49:49.209Z,-0.46
2019-01-26T06:50:49.235Z,-0.47
2019-01-26T06:51:49.709Z,-0.49
2019-01-26T06:52:49.270Z,-0.46
2019-01-26T06:53:49.092Z,-0.45
2019-01-26T06:54:49.122Z,-0.41
2019-01-26T06:55:49.685Z,-0.41
2019-01-26T06:56:49.335Z,-0.47
2019-01-26T06:57:50.683Z,-0.4
2019-01-26T06:58:49.387Z,-0.42
2019-01-26T06:59:50.946Z,-0.42
2019-01-26T07:00:49.502Z,-0.4
2019-01-26T07:01:49.112Z,-0.41
2019-01-26T07:02:49.334Z,-0.41
2019-01-26T07:03:49.211Z,-0.38
2019-01-26T07:04:49.575Z,-0.42
2019-01-26T07:05:49.189Z,-0.39
2019-01-26T07:06:49.080Z,-0.39
2019-01-26T07:07:49.186Z,-0.41
2019-01-26T07:08:49.235Z,-0.35
2019-01-26T07:09:49.342Z,-0.37
2019-01-26T07:10:49.211Z,-0.39
2019-01-26T07:11:49.108Z,-0.36
2019-01-26T07:12:49.176Z,-0.29
2019-01-26T07:13:49.288Z,-0.37
2019-01-26T07:14:49.287Z,-0.34
2019-01-26T07:15:49.446Z,-0.35
2019-01-26T07:16:49.358Z,-0.34
2019-01-26T07:17:49.122Z,-0.31
2019-01-26T07:18:49.084Z,-0.29
2019-01-26T07:19:49.248Z,-0.31
2019-01-26T07:20:49.151Z,-0.31
2019-01-26T07:21:49.107Z,-0.3
2019-01-26T07:22:49.624Z,-0.26
2019-01-26T07:23:49.758Z,-0.29
2019-01-26T07:24:49.099Z,-0.31
2019-01-26T07:25:49.070Z,-0.27
2019-01-26T07:26:49.160Z,-0.27
2019-01-26T07:27:49.203Z,-0.24
2019-01-26T07:28:49.226Z,-0.24
2019-01-26T07:29:49.142Z,-0.22
2019-01-26T07:30:49.119Z,-0.21
2019-01-26T07:31:49.423Z,-0.22
2019-01-26T07:32:49.160Z,-0.21
2019-01-26T07:33:50.203Z,-0.18
2019-01-26T07:34:49.050Z,-0.18
2019-01-26T07:35:49.109Z,-0.19
2019-01-26T07:36:49.033Z,-0.25
2019-01-26T07:37:49.122Z,-0.22
2019-01-26T07:38:49.092Z,-0.18
2019-01-26T07:39:49.077Z,-0.24
2019-01-26T07:40:49.209Z,-0.2
2019-01-26T07:41:49.289Z,-0.13
2019-01-26T07:42:49.589Z,-0.17
2019-01-26T07:43:49.264Z,-0.16
2019-01-26T07:44:49.487Z,-0.22
2019-01-26T07:45:49.356Z,-0.18
2019-01-26T07:46:49.106Z,-0.17
2019-01-26T07:47:49.521Z,-0.12
2019-01-26T07:48:49.549Z,-0.11
2019-01-26T07:49:49.170Z,-0.15
2019-01-26T07:50:49.202Z,-0.14
2019-01-26T07:51:49.058Z,-0.12
2019-01-26T07:52:49.263Z,-0.12
2019-01-26T07:53:49.107Z,-0.13
2019-01-26T07:54:49.285Z,-0.09
2019-01-26T07:55:49.120Z,-0.04
2019-01-26T07:56:49.290Z,0
2019-01-26T07:57:49.007Z,0
2019-01-26T07:58:50.813Z,-0.01
2019-01-26T07:59:49.460Z,-0.05
2019-01-26T08:00:49.037Z,-0.02
2019-01-26T08:01:49.132Z,-0.02
2019-01-26T08:02:49.010Z,-0.07
2019-01-26T08:03:49.089Z,-0.05
2019-01-26T08:04:49.100Z,-0.06
2019-01-26T08:05:49.163Z,-0.06
2019-01-26T08:06:50.281Z,-0.04
2019-01-26T08:07:50.093Z,-0.04
2019-01-26T08:08:49.193Z,-0.03
2019-01-26T08:09:49.266Z,-0.04
2019-01-26T08:10:49.622Z,-0.05
2019-01-26T08:11:50.829Z,-0.04
2019-01-26T08:12:49.203Z,-0.01
2019-01-26T08:13:49.314Z,-0.04
2019-01-26T08:14:49.187Z,0.07
2019-01-26T08:15:49.130Z,0.04
2019-01-26T08:16:49.438Z,-0.02
2019-01-26T08:17:49.990Z,0.03
2019-01-26T08:18:49.108Z,0.02
2019-01-26T08:19:49.258Z,0.03
2019-01-26T08:20:49.815Z,0.06
2019-01-26T08:21:49.361Z,0.05
2019-01-26T08:22:49.129Z,0.07
2019-01-26T08:23:49.169Z,0.06
2019-01-26T08:24:48.976Z,0.07
2019-01-26T08:25:48.994Z,0.08
2019-01-26T08:26:49.101Z,0.08
2019-01-26T08:27:49.123Z,0.11
2019-01-26T08:28:51.004Z,0.1
2019-01-26T08:29:49.324Z,0.12
2019-01-26T08:30:49.089Z,0.1
2019-01-26T08:31:49.233Z,0.12
2019-01-26T08:32:49.125Z,0.11
2019-01-26T08:33:49.397Z,0.08
2019-01-26T08:34:49.356Z,0.07
2019-01-26T08:35:49.028Z,0.08
2019-01-26T08:36:49.347Z,0.08
2019-01-26T08:37:49.375Z,0.05
2019-01-26T08:38:49.921Z,0.05
2019-01-26T08:39:49.126Z,0.06
2019-01-26T08:40:49.311Z,0.04
2019-01-26T08:41:49.599Z,0.04
2019-01-26T08:42:49.417Z,0.05
2019-01-26T08:43:49.052Z,0.08
2019-01-26T08:44:49.402Z,0.04
2019-01-26T08:45:49.458Z,0.06
2019-01-26T08:46:49.226Z,0.05
2019-01-26T08:47:49.064Z,0.02
2019-01-26T08:48:50.738Z,0.05
2019-01-26T08:49:49.214Z,0.04
2019-01-26T08:50:48.901Z,0.08
2019-01-26T08:51:49.189Z,0.05
2019-01-26T08:52:50.775Z,0.07
2019-01-26T08:53:48.945Z,0.09
2019-01-26T08:54:48.487Z,0.11
2019-01-26T08:56:49.055Z,0.1
2019-01-26T08:57:49.267Z,0.12
2019-01-26T08:58:49.302Z,0.1
2019-01-26T08:59:49.057Z,0.12
2019-01-26T09:00:49.177Z,0.12
2019-01-26T09:01:51.073Z,0.14
2019-01-26T09:02:48.987Z,0.16
2019-01-26T09:03:49.389Z,0.13
2019-01-26T09:04:54.433Z,0.18
2019-01-26T09:05:49.889Z,0.23
2019-01-26T09:06:49.335Z,0.23
2019-01-26T09:07:50.640Z,0.22
2019-01-26T09:08:48.940Z,0.23
2019-01-26T09:09:49.553Z,0.24
2019-01-26T09:10:49.119Z,0.27
2019-01-26T09:11:48.904Z,0.32
2019-01-26T09:12:48.886Z,0.32
2019-01-26T09:13:49.183Z,0.3
2019-01-26T09:14:48.929Z,0.33
2019-01-26T09:15:48.911Z,0.37
2019-01-26T09:16:49.106Z,0.33
2019-01-26T09:17:48.925Z,0.37
2019-01-26T09:18:48.914Z,0.41
2019-01-26T09:19:48.876Z,0.44
2019-01-26T09:20:50.396Z,0.37
2019-01-26T09:21:49.266Z,0.39
2019-01-26T09:22:49.146Z,0.38
2019-01-26T09:23:48.873Z,0.4
2019-01-26T09:24:49.154Z,0.42
2019-01-26T09:25:49.466Z,0.44
2019-01-26T09:26:49.213Z,0.43
2019-01-26T09:27:48.871Z,0.45
2019-01-26T09:28:48.907Z,0.46
2019-01-26T09:29:48.885Z,0.43
2019-01-26T09:30:49.104Z,0.45
2019-01-26T09:31:49.130Z,0.46
2019-01-26T09:32:48.874Z,0.44
2019-01-26T09:33:48.988Z,0.46
2019-01-26T09:34:49.011Z,0.47
2019-01-26T09:35:48.927Z,0.49
2019-01-26T09:36:49.444Z,0.45
2019-01-26T09:37:48.894Z,0.48
2019-01-26T09:38:49.439Z,0.5
2019-01-26T09:39:48.893Z,0.47
2019-01-26T09:40:49.380Z,0.5
2019-01-26T09:41:48.872Z,0.47
2019-01-26T09:42:49.194Z,0.51
2019-01-26T09:43:48.921Z,0.53
2019-01-26T09:44:49.325Z,0.49
2019-01-26T09:45:48.918Z,0.49
2019-01-26T09:47:49.273Z,0.54
2019-01-26T09:48:48.814Z,0.51
2019-01-26T09:49:48.902Z,0.52
2019-01-26T09:50:48.811Z,0.49
2019-01-26T09:51:48.890Z,0.48
2019-01-26T09:52:48.856Z,0.51
2019-01-26T09:53:48.783Z,0.52
2019-01-26T09:54:49.705Z,0.49
2019-01-26T09:55:48.818Z,0.49
2019-01-26T09:56:49.195Z,0.5
2019-01-26T09:57:48.920Z,0.54
2019-01-26T09:58:48.914Z,0.51
2019-01-26T09:59:48.907Z,0.53
2019-01-26T10:00:48.870Z,0.5
2019-01-26T10:01:49.023Z,0.54
2019-01-26T10:02:48.892Z,0.52
2019-01-26T10:03:49.725Z,0.56
2019-01-26T10:04:49.244Z,0.51
2019-01-26T10:05:48.818Z,0.53
2019-01-26T10:06:49.149Z,0.55
2019-01-26T10:07:48.942Z,0.57
2019-01-26T10:08:49.226Z,0.59
2019-01-26T10:09:48.802Z,0.55
2019-01-26T10:10:48.919Z,0.59
2019-01-26T10:11:48.915Z,0.59
2019-01-26T10:12:49.150Z,0.65
2019-01-26T10:13:49.244Z,0.63
2019-01-26T10:14:50.662Z,0.6
2019-01-26T10:15:49.147Z,0.66
2019-01-26T10:16:50.614Z,0.68
2019-01-26T10:17:48.921Z,0.71
2019-01-26T10:18:54.202Z,0.75
2019-01-26T10:19:49.218Z,0.74
2019-01-26T10:20:49.047Z,0.73
2019-01-26T10:21:49.126Z,0.78
2019-01-26T10:22:49.421Z,0.8
2019-01-26T10:23:48.760Z,0.82
2019-01-26T10:24:49.058Z,0.79
2019-01-26T10:25:49.256Z,0.81
2019-01-26T10:26:48.783Z,0.83
2019-01-26T10:27:48.742Z,0.83
2019-01-26T10:28:49.096Z,0.84
2019-01-26T10:29:48.926Z,0.85
2019-01-26T10:30:50.431Z,0.89
2019-01-26T10:31:48.922Z,0.91
2019-01-26T10:32:49.163Z,0.93
2019-01-26T10:33:49.678Z,0.96
2019-01-26T10:34:49.008Z,0.99
2019-01-26T10:35:49.172Z,1.06
2019-01-26T10:36:49.070Z,1.05
2019-01-26T10:37:49.093Z,1.03
2019-01-26T10:38:54.451Z,1.1
2019-01-26T10:39:59.458Z,1.12
2019-01-26T10:40:50.888Z,1.15
2019-01-26T10:41:49.425Z,1.16
2019-01-26T10:42:48.835Z,1.19
2019-01-26T10:43:48.752Z,1.18
2019-01-26T10:44:49.504Z,1.13
2019-01-26T10:45:50.087Z,1.17
2019-01-26T10:46:49.012Z,1.19
2019-01-26T10:47:49.899Z,1.23
2019-01-26T10:48:52.008Z,1.31
2019-01-26T10:49:48.819Z,1.33
2019-01-26T10:50:50.525Z,1.31
2019-01-26T10:51:48.756Z,1.35
2019-01-26T10:52:49.092Z,1.39
2019-01-26T10:53:49.524Z,1.46
2019-01-26T10:54:48.788Z,1.47
2019-01-26T10:55:48.766Z,1.5
2019-01-26T10:56:48.936Z,1.55
2019-01-26T10:57:48.761Z,1.63
2019-01-26T10:58:48.795Z,1.62
2019-01-26T10:59:48.879Z,1.66
2019-01-26T11:00:48.877Z,1.69
2019-01-26T11:01:48.743Z,1.69
2019-01-26T11:02:48.853Z,1.68
2019-01-26T11:03:48.783Z,1.59
2019-01-26T11:04:49.423Z,1.67
2019-01-26T11:05:48.827Z,1.7
2019-01-26T11:06:48.815Z,1.71
2019-01-26T11:07:48.744Z,1.69
2019-01-26T11:08:50.291Z,1.73
2019-01-26T11:09:48.817Z,1.68
2019-01-26T11:10:50.061Z,1.67
2019-01-26T11:11:50.751Z,1.71
2019-01-26T11:12:50.540Z,1.72
2019-01-26T11:14:49.791Z,1.74
2019-01-26T11:15:48.703Z,1.71
2019-01-26T11:16:48.789Z,1.72
2019-01-26T11:17:48.863Z,1.73
2019-01-26T11:18:49.129Z,1.75
2019-01-26T11:19:48.724Z,1.72
2019-01-26T11:20:48.723Z,1.76
2019-01-26T11:21:49.543Z,1.77
2019-01-26T11:23:48.788Z,1.75
2019-01-26T11:24:50.728Z,1.76
2019-01-26T11:26:51.284Z,1.8
2019-01-26T11:27:48.719Z,1.79
2019-01-26T11:28:51.686Z,1.82
2019-01-26T11:29:51.112Z,1.81
2019-01-26T11:30:48.869Z,1.77
2019-01-26T11:31:48.740Z,1.78
2019-01-26T11:33:06.403Z,1.71
2019-01-26T11:33:49.239Z,1.72
2019-01-26T11:34:54.282Z,1.72
2019-01-26T11:35:48.661Z,1.72
2019-01-26T11:36:50.340Z,1.7
2019-01-26T11:37:49.045Z,1.71
2019-01-26T11:39:03.857Z,1.69
2019-01-26T11:39:51.227Z,1.7
2019-01-26T11:40:49.199Z,1.67
2019-01-26T11:41:48.734Z,1.67
2019-01-26T11:42:48.746Z,1.69
2019-01-26T11:43:48.765Z,1.71
2019-01-26T11:44:48.862Z,1.68
2019-01-26T11:45:48.621Z,1.64
2019-01-26T11:47:48.917Z,1.64
2019-01-26T11:48:50.349Z,1.65
2019-01-26T11:49:48.857Z,1.67
2019-01-26T11:50:48.747Z,1.67
2019-01-26T11:51:48.962Z,1.67
2019-01-26T11:52:48.865Z,1.67
2019-01-26T11:53:49.158Z,1.69
2019-01-26T11:54:48.899Z,1.68
2019-01-26T11:55:48.748Z,1.68
2019-01-26T11:56:48.861Z,1.7
2019-01-26T11:57:49.143Z,1.68
2019-01-26T11:58:53.318Z,1.68
2019-01-26T11:59:49.529Z,1.7
2019-01-26T12:00:59.820Z,1.71
2019-01-26T12:01:48.790Z,1.69
2019-01-26T12:02:48.835Z,1.69
2019-01-26T12:03:48.729Z,1.72
2019-01-26T12:04:48.939Z,1.72
2019-01-26T12:05:48.754Z,1.68
2019-01-26T12:06:50.118Z,1.71
2019-01-26T12:07:48.812Z,1.7
2019-01-26T12:08:53.426Z,1.7
2019-01-26T12:09:52.738Z,1.73
2019-01-26T12:10:56.869Z,1.74
2019-01-26T12:11:53.467Z,1.71
2019-01-26T12:12:50.067Z,1.74
2019-01-26T12:13:49.723Z,1.72
2019-01-26T12:14:48.945Z,1.72
2019-01-26T12:15:48.754Z,1.71
2019-01-26T12:16:49.815Z,1.78
2019-01-26T12:17:51.142Z,1.74
2019-01-26T12:18:49.204Z,1.76
2019-01-26T12:19:52.702Z,1.73
2019-01-26T12:20:49.945Z,1.78
2019-01-26T12:21:48.762Z,1.76
2019-01-26T12:22:48.800Z,1.78
2019-01-26T12:23:48.614Z,1.84
2019-01-26T12:24:48.723Z,1.84
2019-01-26T12:25:53.055Z,1.81
2019-01-26T12:26:48.805Z,1.84
2019-01-26T12:27:49.001Z,1.85
2019-01-26T12:28:48.766Z,1.88
2019-01-26T12:29:48.601Z,1.85
2019-01-26T12:30:49.103Z,1.84
2019-01-26T12:31:49.129Z,1.86
2019-01-26T12:32:51.126Z,1.85
2019-01-26T12:33:49.035Z,1.84
2019-01-26T12:34:49.905Z,1.86
2019-01-26T12:35:48.698Z,1.83
2019-01-26T12:36:48.547Z,1.9
2019-01-26T12:37:48.623Z,1.86
2019-01-26T12:38:48.767Z,1.89
2019-01-26T12:39:53.146Z,1.9
2019-01-26T12:40:48.647Z,1.92
2019-01-26T12:41:49.022Z,1.92
2019-01-26T12:42:48.365Z,1.94
2019-01-26T12:43:48.619Z,1.93
2019-01-26T12:44:49.787Z,1.93
2019-01-26T12:45:49.407Z,1.92
2019-01-26T12:46:48.301Z,1.91
2019-01-26T12:47:48.557Z,1.93
2019-01-26T12:48:48.706Z,1.93
2019-01-26T12:49:48.666Z,1.91
2019-01-26T12:50:49.017Z,1.95
2019-01-26T12:51:48.581Z,1.98
2019-01-26T12:52:48.640Z,1.99
2019-01-26T12:53:49.045Z,2
2019-01-26T12:54:49.452Z,1.97
2019-01-26T12:55:48.649Z,1.98
2019-01-26T12:56:49.320Z,1.93
2019-01-26T12:57:48.573Z,1.97
2019-01-26T12:58:48.687Z,1.98
2019-01-26T12:59:48.533Z,1.95
2019-01-26T13:00:48.887Z,1.93
2019-01-26T13:01:48.624Z,1.93
2019-01-26T13:02:49.664Z,1.96
2019-01-26T13:03:48.716Z,1.92
2019-01-26T13:04:48.601Z,1.92
2019-01-26T13:05:48.657Z,1.94
2019-01-26T13:06:48.800Z,1.98
2019-01-26T13:07:49.012Z,1.96
2019-01-26T13:08:48.582Z,1.97
2019-01-26T13:09:48.510Z,1.98
2019-01-26T13:10:48.655Z,1.99